• Join FlightAware (Why Join?)
  • Login
  • US Flag 
01:22PM EST


 

Airport Tracker/Info


-or-


 

Live Flight TrackerFlight Track Log ✈ CTL18 ✈ 08-May-2013 ✈ KPTK - KMBS

Flight Track Log - Related Links

Times and Time Zones

All times are in EDT time to prevent confusion due to time zone crossing. See the CTL18 flight status page for this flight to view local times or setup timezone preferences in your user account.

Time Position Orientation Groundspeed Altitude Reporting Facility
EDT Latitude Longitude Course Direction KTS MPH feet Rate Location/Type
06:52PM 42.6653 -83.4069 88° East 121 139 1,400  Level Cleveland Center
06:52PM 42.6656 -83.3928 88° East 118 136 1,700 720 Climbing Cleveland Center
06:54PM 42.7011 -83.3917 North 154 177 2,500 660 Climbing Cleveland Center
06:55PM 42.7439 -83.3965 14° North  Level FlightAware Approximate
07:02PM 43.0060 -83.4833 321° Northwest  Level FlightAware Approximate
07:03PM 43.0387 -83.5193 321° Northwest  Level FlightAware Approximate
07:04PM 43.0713 -83.5554 321° Northwest  Level FlightAware Approximate
07:05PM 43.1040 -83.5916 321° Northwest  Level FlightAware Approximate
07:06PM 43.1366 -83.6277 321° Northwest  Level FlightAware Approximate
07:07PM 43.1693 -83.6640 321° Northwest  Level FlightAware Approximate
07:08PM 43.2019 -83.7002 321° Northwest  Level FlightAware Approximate
07:09PM 43.2338 -83.7376 318° Northwest  Level FlightAware Approximate
07:10PM 43.2652 -83.7759 318° Northwest  Level FlightAware Approximate
07:11PM 43.2966 -83.8142 318° Northwest  Level FlightAware Approximate
07:12PM 43.3280 -83.8526 318° Northwest  Level FlightAware Approximate
07:13PM 43.3593 -83.8910 318° Northwest  Level FlightAware Approximate
07:14PM 43.3927 -83.9260 324° Northwest  Level FlightAware Approximate
07:15PM 43.4267 -83.9599 324° Northwest  Level FlightAware Approximate
07:16PM 43.4607 -83.9939 324° Northwest  Level FlightAware Approximate
07:17PM 43.4946 -84.0279 324° Northwest  Level FlightAware Approximate
07:18PM 43.5167 -84.0667 305° West  Level FlightAware Approximate
07:19PM 43.5329 -84.0796 305° West  Level Estimated
07:20PM 43.5329 -84.0796 305° West  Level Estimated
07:21PM 43.5329 -84.0796 305° West  Level Estimated
07:22PM 43.5329 -84.0796 305° West  Level Estimated
07:23PM 43.5329 -84.0796 305° West  Level Estimated
07:24PM 43.5329 -84.0796 305° West  Level Estimated